• pl
  • eng

Awiacja
WIADOMOŚCI
ostatnia aktualizacja: 17.04.2020 19:04
Szanowni Państwo,

mając na uwadze sytuację związaną z pandemią wywołaną koronawirusem SARS-Cov-2 oraz w trosce o bezpieczeństwo Państwa oraz naszych pracowników, IMGW-PIB podjął decyzję o przeniesieniu kolejnej edycji Szkoły Meteorologii Lotniczej na przyszły rok. W tej chwili podanie dokładnego terminu szkoły nie jest możliwe, ale jak tylko będzie znany zostanie ogłoszony na naszych stronach internetowych, do których śledzenia serdecznie zapraszamy.

TAF FC 16:30 10.07.2020
  • WIND
  • SIGNIFICANT EURO
  • SIGNIFICANT
  • SIGMET
  • AIRMET
  • TAF FC
  • TAF FT
  • METAR GG30
  • METAR GG00


TAF EPLB 101430Z 1015/1024 21011KT CAVOK=

TAF EPSY 101430Z 1015/1024 19008KT 9999 SCT040
TEMPO 1016/1021 VRB15G30KT 2500 TSRAGR BKN010 BKN020CB=

TAF EPZG 101430Z 1015/1024 25012KT 9999 SCT045
TEMPO 1015/1021 25016G26KT SHRA BKN025CB
PROB40 TEMPO 1015/1019 25020G36KT 2000 TSRA SCT007 BKN014CB
TEMPO 1022/1024 BKN011=
Awiacja.imgw.pl jest pogodowym serwisem informacyjnym
Instytutu Meteorologii i Gospodarki Wodnej Państwowego Instytutu Badawczego.
Copyright IMGW PIB 2009-2019© Wszelkie prawa zastrzeżone.